Naples, North Carolina
Current Conditions -  °F | °C
As of 3:54 PM on Friday 24 Oct 2014 (Local Time) from KAVL Reporting Station
Clear Clear  
Wind Chill: 65°   Ceiling: Unl
Heat Index: 65°   Visibility: 10mi
Dew Point: 32°   Wind: 8mph
Humidity: 29%   Direction: 330°NNW
Pressure: 30.03"   Gusts: NA
Location:  35.39°N, 82.5°W
Report Text: KAVL 241954Z 33007KT 10SM CLR 18/00 A3003 RMK AO2 SLP157 T01830000
Loading
Personal Weather Stations






























Interactive Weather Map
Tropical Storm Tracking
New forecast layout! Learn more

10-Day Weather Forecast

Advertisements
Track Severe Weather on mobile